createdAt,value
2018-12-31T00:00:32.260Z,64.81
2018-12-31T00:01:32.261Z,64.33
2018-12-31T00:02:32.255Z,65.00
2018-12-31T00:03:32.252Z,63.86
2018-12-31T00:04:32.271Z,63.86
2018-12-31T00:05:32.243Z,63.86
2018-12-31T00:06:32.245Z,66.14
2018-12-31T00:07:32.235Z,62.53
2018-12-31T00:08:32.237Z,66.33
2018-12-31T00:09:32.251Z,64.90
2018-12-31T00:10:32.220Z,65.37
2018-12-31T00:11:32.223Z,65.37
2018-12-31T00:12:32.215Z,63.57
2018-12-31T00:13:32.235Z,63.86
2018-12-31T00:14:32.207Z,63.95
2018-12-31T00:15:32.209Z,63.76
2018-12-31T00:16:32.213Z,64.05
2018-12-31T00:17:32.197Z,62.91
2018-12-31T00:18:32.218Z,64.24
2018-12-31T00:19:32.187Z,64.24
2018-12-31T00:20:32.179Z,62.62
2018-12-31T00:21:32.178Z,62.24
2018-12-31T00:22:32.177Z,61.87
2018-12-31T00:23:32.195Z,63.39
2018-12-31T00:24:32.167Z,62.91
2018-12-31T00:25:32.162Z,61.96
2018-12-31T00:26:32.225Z,62.72
2018-12-31T00:27:32.156Z,61.96
2018-12-31T00:28:32.179Z,61.01
2018-12-31T00:29:32.146Z,60.25
2018-12-31T00:30:32.140Z,61.49
2018-12-31T00:31:32.139Z,61.30
2018-12-31T00:32:32.136Z,60.06
2018-12-31T00:33:32.159Z,61.49
2018-12-31T00:34:32.203Z,61.46
2018-12-31T00:35:32.120Z,60.06
2018-12-31T00:36:32.118Z,59.30
2018-12-31T00:37:32.113Z,58.17
2018-12-31T00:38:32.111Z,57.12
2018-12-31T00:39:32.134Z,55.79
2018-12-31T00:40:32.102Z,57.40
2018-12-31T00:41:32.098Z,56.27
2018-12-31T00:42:32.095Z,56.55
2018-12-31T00:43:32.092Z,58.26
2018-12-31T00:44:32.119Z,57.12
2018-12-31T00:45:32.114Z,57.50
2018-12-31T00:46:32.085Z,57.69
2018-12-31T00:47:32.074Z,55.32
2018-12-31T00:48:32.072Z,55.41
2018-12-31T00:49:32.066Z,56.36
2018-12-31T00:50:32.094Z,55.13
2018-12-31T00:51:32.061Z,56.46
2018-12-31T00:52:32.057Z,57.21
2018-12-31T00:53:32.051Z,56.46
2018-12-31T00:54:32.045Z,56.08
2018-12-31T00:55:32.069Z,57.21
2018-12-31T00:56:32.037Z,54.94
2018-12-31T00:57:32.030Z,55.32
2018-12-31T00:58:32.033Z,54.75
2018-12-31T00:59:32.025Z,55.60
2018-12-31T01:00:32.054Z,54.85
2018-12-31T01:01:32.017Z,54.85
2018-12-31T01:02:32.038Z,53.80
2018-12-31T01:03:32.013Z,54.08
2018-12-31T01:04:32.003Z,52.66
2018-12-31T01:05:32.001Z,51.52
2018-12-31T01:06:32.031Z,50.76
2018-12-31T01:07:31.995Z,49.63
2018-12-31T01:08:31.989Z,49.34
2018-12-31T01:09:31.985Z,42.03
2018-12-31T01:10:31.983Z,40.89
2018-12-31T01:11:32.008Z,40.99
2018-12-31T01:12:31.976Z,40.99
2018-12-31T01:13:31.974Z,39.85
2018-12-31T01:14:31.968Z,38.24
2018-12-31T01:15:31.962Z,38.14
2018-12-31T01:16:31.989Z,40.04
2018-12-31T01:17:31.956Z,38.14
2018-12-31T01:18:31.958Z,36.53
2018-12-31T01:19:31.942Z,35.68
2018-12-31T01:20:31.944Z,36.24
2018-12-31T01:21:31.979Z,34.92
2018-12-31T01:22:31.932Z,31.98
2018-12-31T01:23:31.929Z,33.59
2018-12-31T01:24:31.921Z,32.43
2018-12-31T01:25:31.923Z,30.17
2018-12-31T01:26:31.942Z,31.02
2018-12-31T01:27:31.914Z,29.79
2018-12-31T01:28:31.908Z,31.21
2018-12-31T01:29:31.906Z,31.88
2018-12-31T01:30:31.905Z,33.29
2018-12-31T01:31:31.925Z,35.30
2018-12-31T01:32:31.900Z,33.97
2018-12-31T01:33:31.892Z,33.59
2018-12-31T01:34:31.888Z,33.02
2018-12-31T01:35:31.880Z,33.11
2018-12-31T01:36:31.904Z,33.59
2018-12-31T01:37:31.873Z,33.59
2018-12-31T01:38:31.872Z,32.45
2018-12-31T01:39:31.867Z,34.54
2018-12-31T01:40:31.857Z,35.20
2018-12-31T01:41:31.884Z,34.92
2018-12-31T01:42:31.855Z,35.77
2018-12-31T01:43:31.847Z,34.63
2018-12-31T01:44:31.852Z,34.82
2018-12-31T01:45:31.843Z,35.58
2018-12-31T01:46:31.863Z,35.01
2018-12-31T01:47:31.832Z,35.20
2018-12-31T01:48:31.827Z,35.68
2018-12-31T01:49:31.823Z,36.63
2018-12-31T01:50:31.826Z,35.86
2018-12-31T01:51:31.845Z,36.72
2018-12-31T01:52:31.815Z,35.49
2018-12-31T01:53:31.811Z,35.11
2018-12-31T01:54:31.811Z,35.01
2018-12-31T01:55:31.807Z,35.58
2018-12-31T01:56:31.830Z,35.68
2018-12-31T01:57:31.795Z,35.11
2018-12-31T01:58:31.791Z,35.77
2018-12-31T01:59:31.791Z,36.53
2018-12-31T02:00:31.859Z,36.63
2018-12-31T02:01:31.806Z,36.24
2018-12-31T02:02:31.779Z,35.49
2018-12-31T02:03:31.774Z,36.15
2018-12-31T02:04:31.766Z,36.63
2018-12-31T02:05:31.765Z,36.34
2018-12-31T02:06:31.786Z,34.92
2018-12-31T02:07:31.756Z,35.68
2018-12-31T02:08:31.750Z,34.82
2018-12-31T02:09:31.746Z,35.86
2018-12-31T02:10:31.742Z,35.30
2018-12-31T02:11:31.766Z,35.20
2018-12-31T02:12:31.736Z,35.68
2018-12-31T02:13:31.730Z,34.73
2018-12-31T02:14:31.726Z,33.87
2018-12-31T02:15:31.722Z,34.34
2018-12-31T02:16:31.746Z,34.25
2018-12-31T02:17:31.720Z,35.20
2018-12-31T02:18:31.736Z,34.34
2018-12-31T02:19:31.706Z,33.69
2018-12-31T02:20:31.702Z,34.54
2018-12-31T02:21:31.698Z,35.77
2018-12-31T02:22:31.722Z,33.78
2018-12-31T02:23:31.690Z,33.87
2018-12-31T02:24:31.686Z,33.69
2018-12-31T02:25:31.681Z,34.06
2018-12-31T02:26:31.706Z,35.20
2018-12-31T02:27:31.678Z,34.73
2018-12-31T02:28:31.669Z,34.44
2018-12-31T02:29:31.668Z,33.97
2018-12-31T02:30:31.662Z,34.63
2018-12-31T02:31:31.682Z,34.82
2018-12-31T02:32:31.661Z,33.40
2018-12-31T02:33:31.658Z,33.87
2018-12-31T02:34:31.647Z,32.92
2018-12-31T02:35:31.641Z,33.78
2018-12-31T02:36:31.641Z,32.92
2018-12-31T02:37:31.664Z,33.21
2018-12-31T02:38:31.644Z,33.30
2018-12-31T02:39:31.628Z,32.35
2018-12-31T02:40:31.627Z,31.79
2018-12-31T02:41:31.642Z,32.07
2018-12-31T02:42:31.613Z,34.06
2018-12-31T02:43:31.637Z,33.21
2018-12-31T02:44:31.611Z,32.35
2018-12-31T02:45:31.602Z,32.92
2018-12-31T02:46:31.604Z,33.59
2018-12-31T02:47:31.625Z,32.07
2018-12-31T02:48:31.586Z,31.98
2018-12-31T02:49:31.600Z,32.45
2018-12-31T02:50:31.585Z,32.92
2018-12-31T02:51:31.581Z,32.73
2018-12-31T02:52:31.609Z,33.21
2018-12-31T02:53:31.573Z,33.11
2018-12-31T02:54:31.570Z,32.26
2018-12-31T02:55:31.565Z,30.93
2018-12-31T02:56:31.559Z,32.07
2018-12-31T02:57:31.603Z,32.07
2018-12-31T02:58:31.556Z,32.83
2018-12-31T02:59:31.553Z,33.50
2018-12-31T03:00:31.551Z,33.69
2018-12-31T03:01:31.539Z,33.87
2018-12-31T03:02:31.569Z,33.69
2018-12-31T03:03:31.534Z,32.07
2018-12-31T03:04:31.530Z,33.11
2018-12-31T03:05:31.525Z,32.73
2018-12-31T03:06:31.525Z,32.83
2018-12-31T03:07:31.551Z,33.50
2018-12-31T03:08:31.517Z,32.83
2018-12-31T03:09:31.511Z,32.73
2018-12-31T03:10:31.506Z,32.35
2018-12-31T03:11:31.501Z,32.54
2018-12-31T03:12:31.529Z,32.45
2018-12-31T03:13:31.490Z,33.30
2018-12-31T03:14:31.491Z,34.54
2018-12-31T03:15:31.486Z,33.50
2018-12-31T03:16:31.481Z,32.07
2018-12-31T03:17:31.505Z,33.30
2018-12-31T03:18:31.483Z,32.17
2018-12-31T03:19:31.473Z,32.73
2018-12-31T03:20:31.468Z,33.11
2018-12-31T03:21:31.467Z,32.35
2018-12-31T03:22:31.485Z,33.30
2018-12-31T03:23:31.454Z,32.26
2018-12-31T03:24:31.458Z,32.54
2018-12-31T03:25:31.449Z,32.35
2018-12-31T03:26:31.453Z,33.11
2018-12-31T03:27:31.474Z,32.83
2018-12-31T03:28:31.436Z,32.83
2018-12-31T03:29:31.434Z,31.98
2018-12-31T03:30:31.433Z,31.02
2018-12-31T03:31:31.426Z,29.60
2018-12-31T03:32:31.451Z,30.08
2018-12-31T03:33:31.417Z,30.17
2018-12-31T03:34:31.416Z,30.36
2018-12-31T03:35:31.409Z,31.12
2018-12-31T03:36:31.405Z,31.50
2018-12-31T03:37:31.430Z,30.74
2018-12-31T03:38:31.397Z,31.02
2018-12-31T03:39:31.421Z,31.31
2018-12-31T03:40:31.390Z,30.93
2018-12-31T03:41:31.388Z,31.41
2018-12-31T03:42:31.470Z,29.79
2018-12-31T03:43:31.407Z,30.08
2018-12-31T03:44:31.378Z,30.55
2018-12-31T03:45:31.372Z,29.03
2018-12-31T03:46:31.365Z,29.22
2018-12-31T03:47:31.361Z,29.98
2018-12-31T03:48:31.386Z,31.79
2018-12-31T03:49:31.352Z,33.21
2018-12-31T03:50:31.353Z,32.24
2018-12-31T03:51:31.349Z,29.98
2018-12-31T03:52:31.345Z,28.66
2018-12-31T03:53:31.367Z,29.13
2018-12-31T03:54:31.338Z,29.51
2018-12-31T03:55:31.333Z,29.41
2018-12-31T03:56:31.329Z,28.85
2018-12-31T03:57:31.322Z,28.75
2018-12-31T03:58:31.342Z,28.66
2018-12-31T03:59:31.319Z,29.13
2018-12-31T04:00:31.312Z,28.47
2018-12-31T04:01:31.316Z,28.94
2018-12-31T04:02:31.308Z,28.75
2018-12-31T04:03:31.331Z,28.27
2018-12-31T04:04:31.305Z,28.66
2018-12-31T04:05:31.291Z,31.12
2018-12-31T04:06:31.294Z,29.89
2018-12-31T04:07:31.284Z,29.03
2018-12-31T04:08:31.314Z,28.85
2018-12-31T04:09:31.280Z,29.22
2018-12-31T04:10:31.285Z,28.66
2018-12-31T04:11:31.268Z,29.32
2018-12-31T04:12:31.271Z,29.98
2018-12-31T04:13:31.295Z,28.47
2018-12-31T04:14:31.261Z,28.37
2018-12-31T04:15:31.284Z,28.85
2018-12-31T04:16:31.256Z,29.22
2018-12-31T04:17:31.249Z,29.13
2018-12-31T04:18:31.249Z,29.89
2018-12-31T04:19:31.270Z,31.12
2018-12-31T04:20:31.241Z,30.74
2018-12-31T04:21:31.232Z,29.13
2018-12-31T04:22:31.245Z,28.66
2018-12-31T04:23:31.229Z,28.94
2018-12-31T04:24:31.249Z,29.22
2018-12-31T04:25:31.217Z,29.32
2018-12-31T04:26:31.215Z,28.08
2018-12-31T04:27:31.216Z,28.47
2018-12-31T04:28:31.208Z,29.32
2018-12-31T04:29:31.236Z,29.98
2018-12-31T04:30:31.202Z,30.55
2018-12-31T04:31:31.196Z,28.85
2018-12-31T04:32:31.193Z,27.80
2018-12-31T04:33:31.187Z,28.18
2018-12-31T04:34:31.212Z,27.99
2018-12-31T04:35:31.181Z,28.47
2018-12-31T04:36:31.170Z,28.47
2018-12-31T04:37:31.176Z,29.13
2018-12-31T04:38:31.167Z,28.85
2018-12-31T04:39:31.193Z,28.56
2018-12-31T04:40:31.167Z,28.08
2018-12-31T04:41:31.160Z,28.37
2018-12-31T04:42:31.156Z,27.80
2018-12-31T04:43:31.152Z,28.18
2018-12-31T04:44:31.171Z,28.37
2018-12-31T04:45:31.175Z,28.85
2018-12-31T04:46:31.136Z,29.79
2018-12-31T04:47:31.141Z,28.56
2018-12-31T04:48:31.132Z,28.66
2018-12-31T04:49:31.131Z,28.47
2018-12-31T04:50:31.147Z,28.37
2018-12-31T04:51:31.119Z,28.08
2018-12-31T04:52:31.117Z,28.37
2018-12-31T04:53:31.111Z,27.89
2018-12-31T04:54:31.139Z,27.04
2018-12-31T04:55:31.104Z,27.99
2018-12-31T04:56:31.097Z,28.37
2018-12-31T04:57:31.101Z,28.94
2018-12-31T04:58:31.097Z,28.75
2018-12-31T04:59:31.124Z,29.79
2018-12-31T05:00:31.088Z,30.17
2018-12-31T05:01:31.083Z,28.75
2018-12-31T05:02:31.083Z,28.56
2018-12-31T05:03:31.074Z,28.56
2018-12-31T05:04:31.100Z,27.51
2018-12-31T05:05:31.069Z,28.56
2018-12-31T05:06:31.064Z,28.66
2018-12-31T05:07:31.062Z,30.55
2018-12-31T05:08:31.054Z,29.32
2018-12-31T05:09:31.075Z,31.12
2018-12-31T05:10:31.047Z,30.46
2018-12-31T05:11:31.043Z,30.46
2018-12-31T05:12:31.041Z,30.93
2018-12-31T05:13:31.037Z,30.55
2018-12-31T05:14:31.060Z,29.13
2018-12-31T05:15:31.036Z,28.85
2018-12-31T05:16:31.035Z,29.41
2018-12-31T05:17:31.022Z,29.32
2018-12-31T05:18:31.014Z,29.03
2018-12-31T05:19:31.043Z,27.61
2018-12-31T05:20:31.011Z,29.89
2018-12-31T05:21:31.013Z,29.98
2018-12-31T05:22:31.002Z,28.75
2018-12-31T05:23:31.000Z,27.89
2018-12-31T05:24:31.019Z,28.08
2018-12-31T05:25:30.998Z,27.42
2018-12-31T05:26:30.992Z,26.57
2018-12-31T05:27:30.983Z,26.57
2018-12-31T05:28:30.984Z,30.08
2018-12-31T05:29:31.007Z,27.51
2018-12-31T05:30:30.986Z,28.56
2018-12-31T05:31:30.973Z,29.41
2018-12-31T05:32:30.966Z,28.47
2018-12-31T05:33:30.962Z,29.03
2018-12-31T05:34:30.988Z,30.27
2018-12-31T05:35:30.957Z,28.66
2018-12-31T05:36:30.984Z,30.83
2018-12-31T05:37:30.947Z,31.79
2018-12-31T05:38:30.942Z,33.30
2018-12-31T05:39:30.936Z,30.65
2018-12-31T05:40:30.968Z,32.26
2018-12-31T05:41:30.932Z,33.11
2018-12-31T05:42:30.930Z,32.17
2018-12-31T05:43:30.922Z,28.85
2018-12-31T05:44:30.922Z,28.18
2018-12-31T05:45:30.946Z,30.27
2018-12-31T05:46:30.914Z,30.27
2018-12-31T05:47:30.914Z,30.17
2018-12-31T05:48:30.906Z,32.54
2018-12-31T05:49:30.903Z,30.65
2018-12-31T05:50:30.926Z,31.31
2018-12-31T05:51:30.890Z,31.69
2018-12-31T05:52:30.894Z,30.55
2018-12-31T05:53:30.887Z,29.89
2018-12-31T05:54:30.879Z,30.46
2018-12-31T05:55:30.906Z,30.83
2018-12-31T05:56:30.877Z,31.31
2018-12-31T05:57:30.874Z,30.36
2018-12-31T05:58:30.880Z,30.93
2018-12-31T05:59:30.865Z,33.78
2018-12-31T06:00:30.895Z,33.02
2018-12-31T06:01:30.857Z,30.65
2018-12-31T06:02:30.853Z,30.93
2018-12-31T06:03:30.851Z,31.31
2018-12-31T06:04:30.847Z,32.17
2018-12-31T06:05:30.871Z,32.17
2018-12-31T06:06:30.879Z,31.79
2018-12-31T06:07:30.835Z,28.94
2018-12-31T06:08:30.829Z,31.98
2018-12-31T06:09:30.832Z,30.93
2018-12-31T06:10:30.825Z,33.11
2018-12-31T06:11:30.850Z,31.21
2018-12-31T06:12:30.821Z,29.13
2018-12-31T06:13:30.815Z,29.98
2018-12-31T06:14:30.809Z,31.21
2018-12-31T06:15:30.805Z,29.70
2018-12-31T06:16:30.863Z,29.89
2018-12-31T06:17:30.795Z,28.66
2018-12-31T06:18:30.797Z,29.70
2018-12-31T06:19:30.790Z,28.94
2018-12-31T06:20:30.785Z,29.70
2018-12-31T06:21:30.816Z,30.08
2018-12-31T06:22:30.781Z,30.65
2018-12-31T06:23:30.777Z,28.94
2018-12-31T06:24:30.774Z,29.89
2018-12-31T06:25:30.768Z,30.08
2018-12-31T06:26:30.796Z,28.66
2018-12-31T06:27:30.761Z,27.80
2018-12-31T06:28:30.758Z,27.14
2018-12-31T06:29:30.749Z,26.09
2018-12-31T06:30:30.754Z,25.52
2018-12-31T06:31:30.780Z,25.34
2018-12-31T06:32:30.753Z,24.57
2018-12-31T06:33:30.777Z,21.73
2018-12-31T06:34:30.737Z,20.50
2018-12-31T06:35:30.730Z,19.07
2018-12-31T06:36:30.757Z,20.40
2018-12-31T06:37:30.725Z,19.64
2018-12-31T06:38:30.721Z,17.93
2018-12-31T06:39:30.717Z,16.41
2018-12-31T06:40:30.710Z,15.28
2018-12-31T06:41:30.739Z,15.28
2018-12-31T06:42:30.702Z,15.28
2018-12-31T06:43:30.701Z,14.89
2018-12-31T06:44:30.697Z,15.84
2018-12-31T06:45:30.696Z,15.37
2018-12-31T06:46:30.719Z,15.28
2018-12-31T06:47:30.684Z,14.70
2018-12-31T06:48:30.684Z,15.18
2018-12-31T06:49:30.682Z,14.51
2018-12-31T06:50:30.677Z,15.08
2018-12-31T06:51:30.702Z,13.47
2018-12-31T06:52:30.669Z,12.99
2018-12-31T06:53:30.667Z,13.38
2018-12-31T06:54:30.660Z,12.81
2018-12-31T06:55:30.654Z,12.34
2018-12-31T06:56:30.681Z,13.47
2018-12-31T06:57:30.650Z,14.70
2018-12-31T06:58:30.645Z,14.14
2018-12-31T06:59:30.640Z,14.61
2018-12-31T07:00:30.634Z,14.14
2018-12-31T07:01:30.661Z,14.61
2018-12-31T07:02:30.628Z,13.47
2018-12-31T07:03:30.624Z,13.47
2018-12-31T07:04:30.620Z,14.23
2018-12-31T07:05:30.621Z,12.62
2018-12-31T07:06:30.636Z,11.67
2018-12-31T07:07:30.608Z,11.76
2018-12-31T07:08:30.607Z,12.05
2018-12-31T07:09:30.603Z,12.24
2018-12-31T07:10:30.599Z,12.15
2018-12-31T07:11:30.623Z,12.05
2018-12-31T07:12:30.592Z,11.67
2018-12-31T07:13:30.592Z,11.29
2018-12-31T07:14:30.584Z,10.53
2018-12-31T07:15:30.580Z,10.25
2018-12-31T07:16:30.603Z,7.78
2018-12-31T07:17:30.604Z,5.69
2018-12-31T07:18:30.573Z,7.02
2018-12-31T07:19:30.564Z,7.21
2018-12-31T07:20:30.564Z,6.64
2018-12-31T07:21:30.560Z,6.73
2018-12-31T07:22:30.584Z,6.73
2018-12-31T07:23:30.552Z,7.12
2018-12-31T07:24:30.549Z,6.83
2018-12-31T07:25:30.544Z,6.92
2018-12-31T07:26:30.571Z,6.83
2018-12-31T07:27:30.563Z,6.83
2018-12-31T07:28:30.535Z,7.21
2018-12-31T07:29:30.532Z,7.31
2018-12-31T07:30:30.527Z,6.54
2018-12-31T07:31:30.530Z,6.35
2018-12-31T07:32:30.551Z,7.02
2018-12-31T07:33:30.515Z,8.44
2018-12-31T07:34:30.515Z,8.63
2018-12-31T07:35:30.511Z,7.68
2018-12-31T07:36:30.506Z,7.50
2018-12-31T07:37:30.531Z,7.50
2018-12-31T07:38:30.500Z,8.54
2018-12-31T07:39:30.504Z,8.35
2018-12-31T07:40:30.491Z,7.78
2018-12-31T07:41:30.483Z,8.44
2018-12-31T07:42:30.567Z,7.78
2018-12-31T07:43:30.479Z,7.78
2018-12-31T07:44:30.475Z,8.16
2018-12-31T07:45:30.471Z,8.16
2018-12-31T07:46:30.472Z,8.16
2018-12-31T07:47:30.492Z,8.63
2018-12-31T07:48:30.463Z,9.01
2018-12-31T07:49:30.459Z,8.54
2018-12-31T07:50:30.461Z,8.16
2018-12-31T07:51:30.452Z,8.16
2018-12-31T07:52:30.474Z,7.68
2018-12-31T07:53:30.436Z,7.50
2018-12-31T07:54:30.443Z,8.54
2018-12-31T07:55:30.435Z,8.06
2018-12-31T07:56:30.426Z,8.35
2018-12-31T07:57:30.459Z,8.63
2018-12-31T07:58:30.426Z,8.82
2018-12-31T07:59:30.420Z,9.01
2018-12-31T08:00:30.423Z,8.73
2018-12-31T08:01:30.415Z,8.92
2018-12-31T08:02:30.453Z,9.58
2018-12-31T08:03:30.406Z,9.58
2018-12-31T08:04:30.407Z,10.34
2018-12-31T08:05:30.478Z,12.71
2018-12-31T08:06:30.426Z,12.99
2018-12-31T08:07:30.395Z,12.90
2018-12-31T08:08:30.423Z,12.90
2018-12-31T08:09:30.388Z,12.24
2018-12-31T08:10:30.385Z,12.24
2018-12-31T08:11:30.379Z,12.15
2018-12-31T08:12:30.399Z,12.24
2018-12-31T08:13:30.376Z,11.38
2018-12-31T08:14:30.371Z,10.72
2018-12-31T08:15:30.366Z,9.20
2018-12-31T08:16:30.363Z,8.82
2018-12-31T08:17:30.386Z,9.30
2018-12-31T08:18:30.358Z,10.34
2018-12-31T08:19:30.350Z,11.57
2018-12-31T08:20:30.350Z,11.86
2018-12-31T08:21:30.353Z,11.77
2018-12-31T08:22:30.423Z,13.20
2018-12-31T08:23:30.340Z,14.52
2018-12-31T08:24:30.341Z,15.28
2018-12-31T08:25:30.334Z,14.43
2018-12-31T08:26:30.332Z,15.56
2018-12-31T08:27:30.355Z,16.61
2018-12-31T08:28:30.326Z,19.08
2018-12-31T08:29:30.319Z,17.18
2018-12-31T08:30:30.313Z,20.50
2018-12-31T08:31:30.315Z,20.02
2018-12-31T08:32:30.339Z,19.37
2018-12-31T08:33:30.304Z,19.35
2018-12-31T08:34:30.302Z,19.45
2018-12-31T08:35:30.299Z,20.50
2018-12-31T08:36:30.298Z,20.21
2018-12-31T08:37:30.322Z,20.11
2018-12-31T08:38:30.318Z,20.02
2018-12-31T08:39:30.289Z,18.79
2018-12-31T08:40:30.282Z,16.60
2018-12-31T08:41:30.282Z,15.56
2018-12-31T08:42:30.283Z,14.05
2018-12-31T08:43:30.302Z,14.05
2018-12-31T08:44:30.344Z,15.56
2018-12-31T08:45:30.266Z,19.27
2018-12-31T08:46:30.265Z,18.79
2018-12-31T08:47:30.288Z,19.65
2018-12-31T08:48:30.258Z,20.98
2018-12-31T08:49:30.259Z,21.17
2018-12-31T08:50:30.249Z,21.17
2018-12-31T08:51:30.246Z,20.12
2018-12-31T08:52:30.274Z,20.50
2018-12-31T08:53:30.242Z,19.37
2018-12-31T08:54:30.234Z,21.08
2018-12-31T08:55:30.236Z,20.31
2018-12-31T08:56:30.232Z,20.98
2018-12-31T08:57:30.254Z,20.22
2018-12-31T08:58:30.227Z,20.69
2018-12-31T08:59:30.222Z,20.31
2018-12-31T09:00:30.220Z,20.79
2018-12-31T09:01:30.214Z,21.45
2018-12-31T09:02:30.234Z,20.98
2018-12-31T09:03:30.207Z,21.26
2018-12-31T09:04:30.205Z,21.26
2018-12-31T09:05:30.202Z,20.60
2018-12-31T09:06:30.204Z,21.55
2018-12-31T09:07:30.214Z,21.08
2018-12-31T09:08:30.191Z,20.31
2018-12-31T09:09:30.190Z,19.37
2018-12-31T09:10:30.182Z,18.98
2018-12-31T09:11:30.185Z,18.79
2018-12-31T09:12:30.206Z,18.89
2018-12-31T09:13:30.174Z,20.60
2018-12-31T09:14:30.174Z,21.26
2018-12-31T09:15:30.172Z,20.41
2018-12-31T09:16:30.165Z,20.69
2018-12-31T09:17:30.190Z,20.98
2018-12-31T09:18:30.157Z,19.93
2018-12-31T09:19:30.155Z,19.65
2018-12-31T09:20:30.155Z,19.46
2018-12-31T09:21:30.149Z,19.18
2018-12-31T09:22:30.173Z,20.50
2018-12-31T09:23:30.137Z,20.69
2018-12-31T09:24:30.140Z,20.69
2018-12-31T09:25:30.137Z,20.22
2018-12-31T09:26:30.130Z,19.56
2018-12-31T09:27:30.158Z,19.56
2018-12-31T09:28:30.125Z,19.74
2018-12-31T09:29:30.150Z,21.17
2018-12-31T09:30:30.120Z,22.60
2018-12-31T09:31:30.116Z,24.49
2018-12-31T09:32:30.115Z,26.01
2018-12-31T09:33:30.139Z,24.40
2018-12-31T09:34:30.109Z,22.50
2018-12-31T09:35:30.109Z,20.98
2018-12-31T09:36:30.100Z,20.69
2018-12-31T09:37:30.097Z,21.64
2018-12-31T09:38:30.127Z,21.45
2018-12-31T09:39:30.090Z,22.02
2018-12-31T09:40:30.092Z,21.64
2018-12-31T09:41:30.084Z,20.69
2018-12-31T09:42:30.111Z,20.50
2018-12-31T09:43:30.081Z,20.31
2018-12-31T09:44:30.077Z,20.22
2018-12-31T09:45:30.073Z,20.50
2018-12-31T09:46:30.068Z,20.22
2018-12-31T09:47:30.094Z,20.22
2018-12-31T09:48:30.062Z,20.22
2018-12-31T09:49:30.060Z,20.12
2018-12-31T09:50:30.053Z,21.08
2018-12-31T09:51:30.057Z,20.41
2018-12-31T09:52:30.081Z,19.74
2018-12-31T09:53:30.048Z,19.56
2018-12-31T09:54:30.073Z,19.46
2018-12-31T09:55:30.041Z,18.32
2018-12-31T09:56:30.037Z,18.13
2018-12-31T09:57:30.032Z,17.27
2018-12-31T09:58:30.061Z,15.85
2018-12-31T09:59:30.031Z,14.90
2018-12-31T10:00:30.909Z,15.37
2018-12-31T10:01:30.087Z,15.00
2018-12-31T10:02:30.025Z,15.00
2018-12-31T10:03:30.046Z,15.19
2018-12-31T10:04:30.012Z,15.19
2018-12-31T10:05:30.008Z,16.80
2018-12-31T10:06:30.001Z,15.47
2018-12-31T10:07:30.004Z,15.37
2018-12-31T10:08:30.024Z,15.85
2018-12-31T10:09:30.003Z,15.00
2018-12-31T10:10:29.992Z,14.81
2018-12-31T10:11:29.988Z,15.00
2018-12-31T10:12:29.985Z,14.43
2018-12-31T10:13:30.012Z,14.62
2018-12-31T10:14:29.979Z,14.05
2018-12-31T10:15:29.994Z,13.00
2018-12-31T10:16:30.566Z,12.72
2018-12-31T10:17:29.969Z,12.91
2018-12-31T10:18:30.001Z,13.00
2018-12-31T10:19:29.958Z,12.62
2018-12-31T10:20:30.132Z,13.57
2018-12-31T10:21:29.960Z,12.91
2018-12-31T10:22:29.948Z,13.48
2018-12-31T10:23:29.951Z,12.43
2018-12-31T10:24:29.985Z,12.15
2018-12-31T10:25:29.943Z,12.72
2018-12-31T10:26:29.948Z,12.43
2018-12-31T10:27:29.936Z,12.72
2018-12-31T10:28:29.962Z,11.87
2018-12-31T10:29:35.949Z,10.82
2018-12-31T10:30:29.930Z,11.58
2018-12-31T10:31:30.907Z,11.68
2018-12-31T10:32:29.922Z,11.58
2018-12-31T10:33:29.944Z,11.20
2018-12-31T10:34:29.913Z,12.81
2018-12-31T10:35:29.935Z,12.24
2018-12-31T10:36:29.920Z,13.10
2018-12-31T10:37:29.903Z,13.10
2018-12-31T10:38:29.904Z,13.29
2018-12-31T10:39:29.927Z,12.91
2018-12-31T10:40:29.891Z,13.29
2018-12-31T10:41:29.895Z,13.10
2018-12-31T10:42:29.889Z,13.10
2018-12-31T10:43:29.879Z,12.91
2018-12-31T10:44:29.911Z,13.00
2018-12-31T10:45:29.879Z,14.24
2018-12-31T10:46:29.879Z,13.76
2018-12-31T10:47:29.875Z,12.91
2018-12-31T10:48:29.869Z,12.72
2018-12-31T10:49:29.892Z,13.48
2018-12-31T10:50:29.888Z,13.57
2018-12-31T10:51:29.862Z,14.33
2018-12-31T10:52:29.857Z,15.20
2018-12-31T10:53:29.852Z,15.86
2018-12-31T10:54:29.852Z,17.56
2018-12-31T10:55:29.875Z,18.04
2018-12-31T10:56:29.838Z,20.32
2018-12-31T10:57:29.839Z,18.24
2018-12-31T10:58:29.843Z,18.04
2018-12-31T10:59:29.831Z,17.57
2018-12-31T11:00:29.858Z,18.41
2018-12-31T11:01:29.858Z,19.09
2018-12-31T11:02:29.827Z,18.14
2018-12-31T11:03:29.824Z,17.95
2018-12-31T11:04:29.855Z,19.09
2018-12-31T11:05:29.823Z,18.99
2018-12-31T11:06:29.811Z,18.71
2018-12-31T11:07:29.814Z,18.04
2018-12-31T11:08:29.807Z,17.76
2018-12-31T11:09:29.832Z,18.32
2018-12-31T11:10:29.797Z,18.14
2018-12-31T11:11:29.798Z,17.95
2018-12-31T11:12:29.795Z,18.71
2018-12-31T11:13:29.788Z,20.50
2018-12-31T11:14:29.834Z,19.27
2018-12-31T11:15:29.786Z,18.14
2018-12-31T11:16:29.810Z,17.57
2018-12-31T11:17:29.778Z,19.18
2018-12-31T11:18:29.779Z,18.04
2018-12-31T11:19:29.775Z,19.47
2018-12-31T11:20:29.798Z,19.66
2018-12-31T11:21:29.767Z,20.23
2018-12-31T11:22:29.766Z,21.66
2018-12-31T11:23:29.811Z,23.93
2018-12-31T11:24:29.757Z,24.03
2018-12-31T11:25:29.785Z,24.98
2018-12-31T11:26:29.754Z,24.60
2018-12-31T11:27:29.750Z,23.18
2018-12-31T11:28:29.745Z,24.32
2018-12-31T11:29:29.749Z,24.32
2018-12-31T11:30:31.192Z,23.46
2018-12-31T11:31:30.517Z,24.41
2018-12-31T11:32:29.738Z,24.69
2018-12-31T11:33:29.735Z,25.93
2018-12-31T11:34:29.730Z,28.11
2018-12-31T11:35:29.758Z,30.20
2018-12-31T11:36:29.728Z,32.67
2018-12-31T11:37:34.628Z,34.00
2018-12-31T11:38:29.726Z,38.28
2018-12-31T11:39:29.719Z,38.37
2018-12-31T11:40:29.743Z,39.53
2018-12-31T11:41:29.713Z,42.67
2018-12-31T11:42:29.717Z,43.71
2018-12-31T11:43:29.710Z,46.28
2018-12-31T11:44:29.701Z,46.56
2018-12-31T11:45:29.734Z,50.46
2018-12-31T11:46:29.698Z,49.98
2018-12-31T11:47:29.700Z,51.12
2018-12-31T11:48:29.694Z,51.60
2018-12-31T11:49:29.689Z,47.89
2018-12-31T11:50:29.774Z,49.60
2018-12-31T11:51:29.687Z,51.60
2018-12-31T11:52:29.681Z,50.84
2018-12-31T11:53:29.682Z,51.22
2018-12-31T11:54:29.683Z,54.26
2018-12-31T11:55:29.699Z,52.26
2018-12-31T11:56:29.678Z,49.79
2018-12-31T11:57:29.670Z,49.41
2018-12-31T11:58:29.754Z,48.56
2018-12-31T11:59:29.666Z,47.89
2018-12-31T12:00:29.694Z,47.04
2018-12-31T12:01:29.690Z,45.90
2018-12-31T12:02:29.678Z,45.33
2018-12-31T12:03:29.657Z,47.61
2018-12-31T12:04:29.653Z,50.27
2018-12-31T12:05:29.651Z,51.31
2018-12-31T12:06:29.680Z,48.46
2018-12-31T12:07:29.650Z,45.80
2018-12-31T12:08:29.650Z,43.80
2018-12-31T12:09:30.414Z,45.61
2018-12-31T12:10:29.638Z,47.99
2018-12-31T12:11:29.671Z,42.10
2018-12-31T12:12:29.631Z,44.38
2018-12-31T12:13:29.635Z,37.35
2018-12-31T12:14:29.631Z,37.92
2018-12-31T12:15:29.619Z,34.78
2018-12-31T12:16:29.654Z,28.13
2018-12-31T12:17:29.619Z,26.51
2018-12-31T12:18:29.622Z,20.34
2018-12-31T12:19:29.627Z,17.20
2018-12-31T12:20:29.618Z,14.92
2018-12-31T12:21:29.649Z,14.63
2018-12-31T12:22:29.615Z,12.92
2018-12-31T12:23:29.610Z,12.07
2018-12-31T12:24:29.606Z,11.21
2018-12-31T12:25:30.413Z,11.30
2018-12-31T12:26:29.630Z,10.83
2018-12-31T12:27:29.596Z,10.73
2018-12-31T12:28:29.594Z,10.44
2018-12-31T12:29:29.595Z,10.06
2018-12-31T12:30:29.594Z,7.60
2018-12-31T12:31:29.619Z,6.55
2018-12-31T12:32:29.586Z,4.08
2018-12-31T12:33:29.582Z,1.80
2018-12-31T12:34:29.587Z,0.28
2018-12-31T12:35:29.577Z,2.66
2018-12-31T12:36:29.602Z,1.61
2018-12-31T12:37:29.574Z,0.38
2018-12-31T12:38:29.570Z,0.57
2018-12-31T12:39:29.570Z,0.57
2018-12-31T12:40:29.573Z,0.38
2018-12-31T12:41:29.589Z,0.00
2018-12-31T12:42:29.562Z,0.09
2018-12-31T12:43:29.567Z,0.00
2018-12-31T12:44:29.551Z,0.00
2018-12-31T12:45:29.553Z,0.00
2018-12-31T12:46:29.578Z,0.00
2018-12-31T12:47:29.544Z,0.00
2018-12-31T12:48:29.542Z,0.00
2018-12-31T12:49:29.542Z,0.00
2018-12-31T12:50:29.542Z,0.00
2018-12-31T12:51:29.564Z,0.00
2018-12-31T12:52:29.538Z,0.00
2018-12-31T12:53:29.531Z,0.00
2018-12-31T12:54:29.532Z,0.00
2018-12-31T12:55:29.526Z,0.00